sensor_id;sensor_type;location;lat;lon;timestamp;P1;durP1;ratioP1;P2;durP2;ratioP2
19482;SDS011;9882;51.166;6.992;2023-02-13T00:01:32;17.35;;;6.53;;
19482;SDS011;9882;51.166;6.992;2023-02-13T00:04:01;17.58;;;6.65;;
19482;SDS011;9882;51.166;6.992;2023-02-13T00:06:30;17.90;;;6.57;;
19482;SDS011;9882;51.166;6.992;2023-02-13T00:08:59;23.15;;;6.93;;
19482;SDS011;9882;51.166;6.992;2023-02-13T00:11:28;24.13;;;7.57;;
19482;SDS011;9882;51.166;6.992;2023-02-13T00:13:57;20.13;;;7.00;;
19482;SDS011;9882;51.166;6.992;2023-02-13T00:16:26;19.85;;;6.80;;
19482;SDS011;9882;51.166;6.992;2023-02-13T00:18:56;22.52;;;7.22;;
19482;SDS011;9882;51.166;6.992;2023-02-13T00:21:24;21.13;;;7.03;;
19482;SDS011;9882;51.166;6.992;2023-02-13T00:23:53;20.00;;;7.22;;
19482;SDS011;9882;51.166;6.992;2023-02-13T00:26:22;23.27;;;8.40;;
19482;SDS011;9882;51.166;6.992;2023-02-13T00:28:51;21.80;;;8.13;;
19482;SDS011;9882;51.166;6.992;2023-02-13T00:31:21;19.23;;;7.57;;
19482;SDS011;9882;51.166;6.992;2023-02-13T00:33:49;23.85;;;8.05;;
19482;SDS011;9882;51.166;6.992;2023-02-13T00:36:20;18.05;;;7.65;;
19482;SDS011;9882;51.166;6.992;2023-02-13T00:38:50;21.58;;;7.57;;
19482;SDS011;9882;51.166;6.992;2023-02-13T00:41:19;26.05;;;8.75;;
19482;SDS011;9882;51.166;6.992;2023-02-13T00:43:49;21.65;;;7.22;;
19482;SDS011;9882;51.166;6.992;2023-02-13T00:46:17;18.38;;;7.22;;
19482;SDS011;9882;51.166;6.992;2023-02-13T00:48:46;24.85;;;8.77;;
19482;SDS011;9882;51.166;6.992;2023-02-13T00:51:15;23.35;;;8.15;;
19482;SDS011;9882;51.166;6.992;2023-02-13T00:53:44;25.48;;;8.77;;
19482;SDS011;9882;51.166;6.992;2023-02-13T00:56:15;23.25;;;8.75;;
19482;SDS011;9882;51.166;6.992;2023-02-13T00:58:44;21.38;;;7.97;;
19482;SDS011;9882;51.166;6.992;2023-02-13T01:01:12;23.40;;;8.57;;
19482;SDS011;9882;51.166;6.992;2023-02-13T01:03:41;23.98;;;8.75;;
19482;SDS011;9882;51.166;6.992;2023-02-13T01:06:09;23.33;;;8.50;;
19482;SDS011;9882;51.166;6.992;2023-02-13T01:08:38;25.38;;;8.77;;
19482;SDS011;9882;51.166;6.992;2023-02-13T01:11:09;27.27;;;8.50;;
19482;SDS011;9882;51.166;6.992;2023-02-13T01:13:37;26.85;;;9.55;;
19482;SDS011;9882;51.166;6.992;2023-02-13T01:16:06;26.95;;;8.80;;
19482;SDS011;9882;51.166;6.992;2023-02-13T01:18:34;24.20;;;7.65;;
19482;SDS011;9882;51.166;6.992;2023-02-13T01:21:04;22.13;;;8.63;;
19482;SDS011;9882;51.166;6.992;2023-02-13T01:23:34;22.95;;;8.80;;
19482;SDS011;9882;51.166;6.992;2023-02-13T01:26:05;28.58;;;10.07;;
19482;SDS011;9882;51.166;6.992;2023-02-13T01:28:36;23.50;;;8.90;;
19482;SDS011;9882;51.166;6.992;2023-02-13T01:31:04;24.50;;;8.65;;
19482;SDS011;9882;51.166;6.992;2023-02-13T01:33:33;25.45;;;8.50;;
19482;SDS011;9882;51.166;6.992;2023-02-13T01:36:04;23.75;;;7.90;;
19482;SDS011;9882;51.166;6.992;2023-02-13T01:38:36;24.73;;;8.75;;
19482;SDS011;9882;51.166;6.992;2023-02-13T01:41:05;25.20;;;8.50;;
19482;SDS011;9882;51.166;6.992;2023-02-13T01:43:46;24.63;;;8.90;;
19482;SDS011;9882;51.166;6.992;2023-02-13T01:46:20;26.77;;;8.45;;
19482;SDS011;9882;51.166;6.992;2023-02-13T01:48:52;23.27;;;8.27;;
19482;SDS011;9882;51.166;6.992;2023-02-13T01:51:23;22.63;;;7.93;;
19482;SDS011;9882;51.166;6.992;2023-02-13T01:53:56;27.27;;;8.85;;
19482;SDS011;9882;51.166;6.992;2023-02-13T01:56:28;25.55;;;8.40;;
19482;SDS011;9882;51.166;6.992;2023-02-13T01:59:06;24.65;;;8.90;;
19482;SDS011;9882;51.166;6.992;2023-02-13T02:01:38;19.35;;;7.88;;
19482;SDS011;9882;51.166;6.992;2023-02-13T02:04:08;23.30;;;8.18;;
19482;SDS011;9882;51.166;6.992;2023-02-13T02:06:41;25.77;;;8.55;;
19482;SDS011;9882;51.166;6.992;2023-02-13T02:09:22;22.52;;;8.02;;
19482;SDS011;9882;51.166;6.992;2023-02-13T02:11:58;21.20;;;8.27;;
19482;SDS011;9882;51.166;6.992;2023-02-13T02:14:35;22.08;;;8.65;;
19482;SDS011;9882;51.166;6.992;2023-02-13T02:17:07;23.48;;;8.35;;
19482;SDS011;9882;51.166;6.992;2023-02-13T02:19:38;26.75;;;7.95;;
19482;SDS011;9882;51.166;6.992;2023-02-13T02:22:28;23.05;;;8.18;;
19482;SDS011;9882;51.166;6.992;2023-02-13T02:25:41;22.35;;;7.15;;
19482;SDS011;9882;51.166;6.992;2023-02-13T02:28:37;20.13;;;7.07;;
19482;SDS011;9882;51.166;6.992;2023-02-13T02:35:04;18.40;;;6.57;;
19482;SDS011;9882;51.166;6.992;2023-02-13T02:38:25;21.17;;;6.50;;
19482;SDS011;9882;51.166;6.992;2023-02-13T02:41:09;16.92;;;6.45;;
19482;SDS011;9882;51.166;6.992;2023-02-13T02:44:03;21.17;;;6.70;;
19482;SDS011;9882;51.166;6.992;2023-02-13T02:47:22;17.73;;;6.20;;
19482;SDS011;9882;51.166;6.992;2023-02-13T03:01:06;18.20;;;6.95;;
19482;SDS011;9882;51.166;6.992;2023-02-13T03:03:58;17.75;;;6.63;;
19482;SDS011;9882;51.166;6.992;2023-02-13T03:06:46;21.27;;;6.35;;
19482;SDS011;9882;51.166;6.992;2023-02-13T03:09:19;24.77;;;7.22;;
19482;SDS011;9882;51.166;6.992;2023-02-13T03:12:09;18.35;;;6.50;;
19482;SDS011;9882;51.166;6.992;2023-02-13T03:14:56;19.25;;;6.88;;
19482;SDS011;9882;51.166;6.992;2023-02-13T03:17:26;17.58;;;6.72;;
19482;SDS011;9882;51.166;6.992;2023-02-13T03:20:13;20.42;;;6.32;;
19482;SDS011;9882;51.166;6.992;2023-02-13T03:23:21;19.13;;;6.68;;
19482;SDS011;9882;51.166;6.992;2023-02-13T03:26:02;20.00;;;7.07;;
19482;SDS011;9882;51.166;6.992;2023-02-13T03:28:38;24.50;;;7.30;;
19482;SDS011;9882;51.166;6.992;2023-02-13T03:31:30;19.20;;;6.78;;
19482;SDS011;9882;51.166;6.992;2023-02-13T03:34:08;18.73;;;6.95;;
19482;SDS011;9882;51.166;6.992;2023-02-13T03:36:42;20.83;;;7.47;;
19482;SDS011;9882;51.166;6.992;2023-02-13T03:39:34;18.85;;;7.20;;
19482;SDS011;9882;51.166;6.992;2023-02-13T03:42:11;18.70;;;6.85;;
19482;SDS011;9882;51.166;6.992;2023-02-13T03:44:45;21.08;;;7.25;;
19482;SDS011;9882;51.166;6.992;2023-02-13T03:47:37;17.45;;;5.85;;
19482;SDS011;9882;51.166;6.992;2023-02-13T03:50:09;22.40;;;7.60;;
19482;SDS011;9882;51.166;6.992;2023-02-13T03:52:40;19.83;;;7.20;;
19482;SDS011;9882;51.166;6.992;2023-02-13T03:55:14;22.05;;;7.72;;
19482;SDS011;9882;51.166;6.992;2023-02-13T03:58:03;22.17;;;7.75;;
19482;SDS011;9882;51.166;6.992;2023-02-13T04:00:52;19.48;;;7.10;;
19482;SDS011;9882;51.166;6.992;2023-02-13T04:03:25;23.98;;;7.82;;
19482;SDS011;9882;51.166;6.992;2023-02-13T04:06:01;20.27;;;7.18;;
19482;SDS011;9882;51.166;6.992;2023-02-13T04:08:33;21.98;;;7.57;;
19482;SDS011;9882;51.166;6.992;2023-02-13T04:11:06;18.15;;;7.10;;
19482;SDS011;9882;51.166;6.992;2023-02-13T04:13:37;19.98;;;7.07;;
19482;SDS011;9882;51.166;6.992;2023-02-13T04:16:12;21.30;;;7.88;;
19482;SDS011;9882;51.166;6.992;2023-02-13T04:18:44;18.92;;;6.97;;
19482;SDS011;9882;51.166;6.992;2023-02-13T04:21:15;18.30;;;7.25;;
19482;SDS011;9882;51.166;6.992;2023-02-13T04:23:44;19.80;;;7.15;;
19482;SDS011;9882;51.166;6.992;2023-02-13T04:26:13;22.15;;;7.82;;
19482;SDS011;9882;51.166;6.992;2023-02-13T04:28:45;22.85;;;7.80;;
19482;SDS011;9882;51.166;6.992;2023-02-13T04:31:14;23.38;;;7.97;;
19482;SDS011;9882;51.166;6.992;2023-02-13T04:33:42;21.63;;;8.38;;
19482;SDS011;9882;51.166;6.992;2023-02-13T04:36:10;19.88;;;7.72;;
19482;SDS011;9882;51.166;6.992;2023-02-13T04:38:40;21.20;;;7.82;;
19482;SDS011;9882;51.166;6.992;2023-02-13T04:41:09;23.00;;;8.52;;
19482;SDS011;9882;51.166;6.992;2023-02-13T04:43:37;23.23;;;8.23;;
19482;SDS011;9882;51.166;6.992;2023-02-13T04:46:05;21.30;;;7.85;;
19482;SDS011;9882;51.166;6.992;2023-02-13T04:48:34;23.38;;;8.57;;
19482;SDS011;9882;51.166;6.992;2023-02-13T04:51:04;21.20;;;8.30;;
19482;SDS011;9882;51.166;6.992;2023-02-13T04:53:33;24.70;;;8.52;;
19482;SDS011;9882;51.166;6.992;2023-02-13T04:56:03;23.90;;;8.07;;
19482;SDS011;9882;51.166;6.992;2023-02-13T04:58:31;22.63;;;7.55;;
19482;SDS011;9882;51.166;6.992;2023-02-13T05:01:00;22.75;;;7.82;;
19482;SDS011;9882;51.166;6.992;2023-02-13T05:03:28;23.35;;;7.88;;
19482;SDS011;9882;51.166;6.992;2023-02-13T05:05:57;21.67;;;7.40;;
19482;SDS011;9882;51.166;6.992;2023-02-13T05:08:25;20.30;;;7.68;;
19482;SDS011;9882;51.166;6.992;2023-02-13T05:10:54;21.77;;;8.10;;
19482;SDS011;9882;51.166;6.992;2023-02-13T05:13:24;21.67;;;8.52;;
19482;SDS011;9882;51.166;6.992;2023-02-13T05:15:52;21.08;;;8.40;;
19482;SDS011;9882;51.166;6.992;2023-02-13T05:18:21;26.02;;;9.27;;
19482;SDS011;9882;51.166;6.992;2023-02-13T05:20:49;23.10;;;8.68;;
19482;SDS011;9882;51.166;6.992;2023-02-13T05:23:32;22.90;;;8.82;;
19482;SDS011;9882;51.166;6.992;2023-02-13T05:26:00;28.83;;;9.10;;
19482;SDS011;9882;51.166;6.992;2023-02-13T05:28:30;25.30;;;9.68;;
19482;SDS011;9882;51.166;6.992;2023-02-13T05:31:16;26.58;;;9.30;;
19482;SDS011;9882;51.166;6.992;2023-02-13T05:33:45;22.10;;;7.88;;
19482;SDS011;9882;51.166;6.992;2023-02-13T05:36:13;19.17;;;8.43;;
19482;SDS011;9882;51.166;6.992;2023-02-13T05:38:41;22.58;;;9.43;;
19482;SDS011;9882;51.166;6.992;2023-02-13T05:41:10;22.52;;;8.52;;
19482;SDS011;9882;51.166;6.992;2023-02-13T05:43:40;20.67;;;8.68;;
19482;SDS011;9882;51.166;6.992;2023-02-13T05:46:09;24.92;;;8.65;;
19482;SDS011;9882;51.166;6.992;2023-02-13T05:48:37;24.00;;;8.50;;
19482;SDS011;9882;51.166;6.992;2023-02-13T05:51:06;23.38;;;8.50;;
19482;SDS011;9882;51.166;6.992;2023-02-13T05:53:34;27.45;;;8.63;;
19482;SDS011;9882;51.166;6.992;2023-02-13T05:56:03;22.25;;;9.07;;
19482;SDS011;9882;51.166;6.992;2023-02-13T05:58:33;24.88;;;8.18;;
19482;SDS011;9882;51.166;6.992;2023-02-13T06:01:03;25.30;;;8.98;;
19482;SDS011;9882;51.166;6.992;2023-02-13T06:03:32;21.73;;;8.23;;
19482;SDS011;9882;51.166;6.992;2023-02-13T06:06:00;24.75;;;8.98;;
19482;SDS011;9882;51.166;6.992;2023-02-13T06:08:29;23.73;;;9.10;;
19482;SDS011;9882;51.166;6.992;2023-02-13T06:10:57;25.77;;;9.57;;
19482;SDS011;9882;51.166;6.992;2023-02-13T06:13:26;24.02;;;9.85;;
19482;SDS011;9882;51.166;6.992;2023-02-13T06:15:55;24.25;;;9.15;;
19482;SDS011;9882;51.166;6.992;2023-02-13T06:18:24;26.73;;;9.90;;
19482;SDS011;9882;51.166;6.992;2023-02-13T06:20:53;27.67;;;9.98;;
19482;SDS011;9882;51.166;6.992;2023-02-13T06:23:22;22.92;;;9.30;;
19482;SDS011;9882;51.166;6.992;2023-02-13T06:25:50;23.98;;;9.50;;
19482;SDS011;9882;51.166;6.992;2023-02-13T06:28:18;26.35;;;9.48;;
19482;SDS011;9882;51.166;6.992;2023-02-13T06:30:47;26.02;;;9.90;;
19482;SDS011;9882;51.166;6.992;2023-02-13T06:33:15;26.08;;;9.75;;
19482;SDS011;9882;51.166;6.992;2023-02-13T06:35:45;32.55;;;10.32;;
19482;SDS011;9882;51.166;6.992;2023-02-13T06:38:14;27.48;;;9.73;;
19482;SDS011;9882;51.166;6.992;2023-02-13T06:40:44;28.55;;;9.50;;
19482;SDS011;9882;51.166;6.992;2023-02-13T06:43:13;26.27;;;10.20;;
19482;SDS011;9882;51.166;6.992;2023-02-13T06:45:43;21.15;;;7.88;;
19482;SDS011;9882;51.166;6.992;2023-02-13T06:48:13;26.15;;;9.95;;
19482;SDS011;9882;51.166;6.992;2023-02-13T06:50:41;24.88;;;8.93;;
19482;SDS011;9882;51.166;6.992;2023-02-13T06:53:11;25.00;;;9.65;;
19482;SDS011;9882;51.166;6.992;2023-02-13T06:55:39;20.45;;;8.60;;
19482;SDS011;9882;51.166;6.992;2023-02-13T06:58:08;26.63;;;9.98;;
19482;SDS011;9882;51.166;6.992;2023-02-13T07:00:36;28.73;;;11.18;;
19482;SDS011;9882;51.166;6.992;2023-02-13T07:03:05;29.13;;;10.60;;
19482;SDS011;9882;51.166;6.992;2023-02-13T07:05:38;26.38;;;10.68;;
19482;SDS011;9882;51.166;6.992;2023-02-13T07:08:06;27.85;;;9.98;;
19482;SDS011;9882;51.166;6.992;2023-02-13T07:10:37;26.55;;;10.00;;
19482;SDS011;9882;51.166;6.992;2023-02-13T07:13:06;24.30;;;9.35;;
19482;SDS011;9882;51.166;6.992;2023-02-13T07:15:35;30.55;;;10.75;;
19482;SDS011;9882;51.166;6.992;2023-02-13T07:18:04;24.65;;;10.45;;
19482;SDS011;9882;51.166;6.992;2023-02-13T07:20:33;26.42;;;10.15;;
19482;SDS011;9882;51.166;6.992;2023-02-13T07:23:02;28.65;;;11.05;;
19482;SDS011;9882;51.166;6.992;2023-02-13T07:25:32;28.42;;;10.07;;
19482;SDS011;9882;51.166;6.992;2023-02-13T07:28:02;24.95;;;10.20;;
19482;SDS011;9882;51.166;6.992;2023-02-13T07:30:32;24.08;;;9.75;;
19482;SDS011;9882;51.166;6.992;2023-02-13T07:33:02;31.30;;;11.02;;
19482;SDS011;9882;51.166;6.992;2023-02-13T07:35:31;28.33;;;10.65;;
19482;SDS011;9882;51.166;6.992;2023-02-13T07:38:01;29.05;;;10.55;;
19482;SDS011;9882;51.166;6.992;2023-02-13T07:40:30;26.27;;;9.10;;
19482;SDS011;9882;51.166;6.992;2023-02-13T07:42:59;26.40;;;9.73;;
19482;SDS011;9882;51.166;6.992;2023-02-13T07:45:29;28.55;;;11.05;;
19482;SDS011;9882;51.166;6.992;2023-02-13T07:47:58;28.45;;;10.35;;
19482;SDS011;9882;51.166;6.992;2023-02-13T07:50:26;24.15;;;9.98;;
19482;SDS011;9882;51.166;6.992;2023-02-13T07:52:55;25.30;;;9.38;;
19482;SDS011;9882;51.166;6.992;2023-02-13T07:55:25;25.27;;;9.82;;
19482;SDS011;9882;51.166;6.992;2023-02-13T07:57:54;24.85;;;9.00;;
19482;SDS011;9882;51.166;6.992;2023-02-13T08:00:23;25.02;;;9.15;;
19482;SDS011;9882;51.166;6.992;2023-02-13T08:02:53;22.08;;;8.98;;
19482;SDS011;9882;51.166;6.992;2023-02-13T08:05:21;24.77;;;9.65;;
19482;SDS011;9882;51.166;6.992;2023-02-13T08:07:51;28.92;;;10.38;;
19482;SDS011;9882;51.166;6.992;2023-02-13T08:10:20;27.80;;;10.20;;
19482;SDS011;9882;51.166;6.992;2023-02-13T08:13:18;28.63;;;9.23;;
19482;SDS011;9882;51.166;6.992;2023-02-13T08:15:46;27.02;;;9.43;;
19482;SDS011;9882;51.166;6.992;2023-02-13T08:18:16;26.48;;;9.65;;
19482;SDS011;9882;51.166;6.992;2023-02-13T08:20:46;31.40;;;9.90;;
19482;SDS011;9882;51.166;6.992;2023-02-13T08:23:14;19.08;;;8.10;;
19482;SDS011;9882;51.166;6.992;2023-02-13T08:25:43;28.58;;;9.95;;
19482;SDS011;9882;51.166;6.992;2023-02-13T08:28:13;23.25;;;9.02;;
19482;SDS011;9882;51.166;6.992;2023-02-13T08:30:42;22.92;;;9.32;;
19482;SDS011;9882;51.166;6.992;2023-02-13T08:33:11;24.75;;;8.50;;
19482;SDS011;9882;51.166;6.992;2023-02-13T08:35:41;26.50;;;9.43;;
19482;SDS011;9882;51.166;6.992;2023-02-13T08:38:09;24.10;;;9.63;;
19482;SDS011;9882;51.166;6.992;2023-02-13T08:40:38;26.00;;;10.55;;
19482;SDS011;9882;51.166;6.992;2023-02-13T08:43:07;22.85;;;9.02;;
19482;SDS011;9882;51.166;6.992;2023-02-13T08:45:36;27.33;;;9.77;;
19482;SDS011;9882;51.166;6.992;2023-02-13T08:48:05;27.48;;;10.18;;
19482;SDS011;9882;51.166;6.992;2023-02-13T08:50:34;27.23;;;9.55;;
19482;SDS011;9882;51.166;6.992;2023-02-13T08:53:04;30.33;;;10.05;;
19482;SDS011;9882;51.166;6.992;2023-02-13T08:55:33;25.90;;;9.25;;
19482;SDS011;9882;51.166;6.992;2023-02-13T08:58:02;25.50;;;8.90;;
19482;SDS011;9882;51.166;6.992;2023-02-13T09:00:31;24.95;;;8.90;;
19482;SDS011;9882;51.166;6.992;2023-02-13T09:03:00;23.83;;;8.23;;
19482;SDS011;9882;51.166;6.992;2023-02-13T09:05:29;25.58;;;8.85;;
19482;SDS011;9882;51.166;6.992;2023-02-13T09:07:59;24.25;;;8.95;;
19482;SDS011;9882;51.166;6.992;2023-02-13T09:10:30;24.92;;;11.30;;
19482;SDS011;9882;51.166;6.992;2023-02-13T09:13:02;21.15;;;8.20;;
19482;SDS011;9882;51.166;6.992;2023-02-13T09:15:30;26.35;;;9.05;;
19482;SDS011;9882;51.166;6.992;2023-02-13T09:18:00;26.23;;;9.43;;
19482;SDS011;9882;51.166;6.992;2023-02-13T09:20:28;24.77;;;8.32;;
19482;SDS011;9882;51.166;6.992;2023-02-13T09:22:57;21.83;;;8.65;;
19482;SDS011;9882;51.166;6.992;2023-02-13T09:25:26;26.02;;;8.77;;
19482;SDS011;9882;51.166;6.992;2023-02-13T09:27:56;22.63;;;8.57;;
19482;SDS011;9882;51.166;6.992;2023-02-13T09:30:26;57.13;;;23.98;;
19482;SDS011;9882;51.166;6.992;2023-02-13T09:32:55;37.75;;;15.05;;
19482;SDS011;9882;51.166;6.992;2023-02-13T09:35:24;39.60;;;14.02;;
19482;SDS011;9882;51.166;6.992;2023-02-13T09:37:54;22.98;;;8.25;;
19482;SDS011;9882;51.166;6.992;2023-02-13T09:40:24;23.77;;;8.63;;
19482;SDS011;9882;51.166;6.992;2023-02-13T09:43:03;27.60;;;9.60;;
19482;SDS011;9882;51.166;6.992;2023-02-13T09:45:35;29.05;;;10.52;;
19482;SDS011;9882;51.166;6.992;2023-02-13T09:48:05;26.55;;;10.35;;
19482;SDS011;9882;51.166;6.992;2023-02-13T09:50:36;24.00;;;9.10;;
19482;SDS011;9882;51.166;6.992;2023-02-13T09:53:06;22.63;;;7.78;;
19482;SDS011;9882;51.166;6.992;2023-02-13T09:55:44;24.02;;;8.77;;
19482;SDS011;9882;51.166;6.992;2023-02-13T09:58:25;22.52;;;8.02;;
19482;SDS011;9882;51.166;6.992;2023-02-13T10:01:04;24.83;;;8.80;;
19482;SDS011;9882;51.166;6.992;2023-02-13T10:03:43;18.40;;;7.18;;
19482;SDS011;9882;51.166;6.992;2023-02-13T10:06:18;17.17;;;6.43;;
19482;SDS011;9882;51.166;6.992;2023-02-13T10:09:01;24.05;;;7.45;;
19482;SDS011;9882;51.166;6.992;2023-02-13T10:11:51;21.58;;;7.97;;
19482;SDS011;9882;51.166;6.992;2023-02-13T10:14:37;22.95;;;7.40;;
19482;SDS011;9882;51.166;6.992;2023-02-13T10:17:13;21.35;;;7.18;;
19482;SDS011;9882;51.166;6.992;2023-02-13T10:19:47;15.52;;;6.28;;
19482;SDS011;9882;51.166;6.992;2023-02-13T10:22:24;18.25;;;7.43;;
19482;SDS011;9882;51.166;6.992;2023-02-13T10:24:58;20.05;;;7.22;;
19482;SDS011;9882;51.166;6.992;2023-02-13T10:27:31;18.17;;;7.30;;
19482;SDS011;9882;51.166;6.992;2023-02-13T10:30:05;20.00;;;7.55;;
19482;SDS011;9882;51.166;6.992;2023-02-13T10:32:45;17.95;;;6.55;;
19482;SDS011;9882;51.166;6.992;2023-02-13T10:35:37;15.98;;;6.35;;
19482;SDS011;9882;51.166;6.992;2023-02-13T10:38:13;17.60;;;6.22;;
19482;SDS011;9882;51.166;6.992;2023-02-13T10:40:46;16.27;;;6.20;;
19482;SDS011;9882;51.166;6.992;2023-02-13T10:43:34;28.50;;;6.88;;
19482;SDS011;9882;51.166;6.992;2023-02-13T10:46:12;18.38;;;6.95;;
19482;SDS011;9882;51.166;6.992;2023-02-13T10:48:58;20.15;;;6.45;;
19482;SDS011;9882;51.166;6.992;2023-02-13T10:51:38;17.20;;;6.53;;
19482;SDS011;9882;51.166;6.992;2023-02-13T10:54:18;17.63;;;6.28;;
19482;SDS011;9882;51.166;6.992;2023-02-13T10:56:54;16.55;;;6.32;;
19482;SDS011;9882;51.166;6.992;2023-02-13T10:59:36;15.75;;;6.00;;
19482;SDS011;9882;51.166;6.992;2023-02-13T11:02:20;18.10;;;6.22;;
19482;SDS011;9882;51.166;6.992;2023-02-13T11:04:52;16.33;;;6.07;;
19482;SDS011;9882;51.166;6.992;2023-02-13T11:07:26;18.52;;;6.30;;
19482;SDS011;9882;51.166;6.992;2023-02-13T11:09:58;16.83;;;6.07;;
19482;SDS011;9882;51.166;6.992;2023-02-13T11:12:32;20.48;;;5.80;;
19482;SDS011;9882;51.166;6.992;2023-02-13T11:15:03;18.55;;;6.35;;
19482;SDS011;9882;51.166;6.992;2023-02-13T11:17:35;15.85;;;6.25;;
19482;SDS011;9882;51.166;6.992;2023-02-13T11:20:20;17.90;;;5.63;;
19482;SDS011;9882;51.166;6.992;2023-02-13T11:23:14;17.35;;;5.80;;
19482;SDS011;9882;51.166;6.992;2023-02-13T11:25:54;18.38;;;6.53;;
19482;SDS011;9882;51.166;6.992;2023-02-13T11:28:25;14.52;;;5.35;;
19482;SDS011;9882;51.166;6.992;2023-02-13T11:31:07;18.70;;;6.40;;
19482;SDS011;9882;51.166;6.992;2023-02-13T11:33:47;19.98;;;6.60;;
19482;SDS011;9882;51.166;6.992;2023-02-13T11:36:21;16.48;;;6.03;;
19482;SDS011;9882;51.166;6.992;2023-02-13T11:38:56;18.27;;;6.18;;
19482;SDS011;9882;51.166;6.992;2023-02-13T11:41:27;15.75;;;6.22;;
19482;SDS011;9882;51.166;6.992;2023-02-13T11:43:58;18.67;;;6.00;;
19482;SDS011;9882;51.166;6.992;2023-02-13T11:46:28;12.43;;;5.47;;
19482;SDS011;9882;51.166;6.992;2023-02-13T11:49:14;16.10;;;6.10;;
19482;SDS011;9882;51.166;6.992;2023-02-13T11:51:46;16.40;;;5.72;;
19482;SDS011;9882;51.166;6.992;2023-02-13T11:54:28;17.58;;;6.13;;
19482;SDS011;9882;51.166;6.992;2023-02-13T11:57:00;13.35;;;5.18;;
19482;SDS011;9882;51.166;6.992;2023-02-13T11:59:32;15.07;;;5.30;;
19482;SDS011;9882;51.166;6.992;2023-02-13T12:02:17;14.65;;;5.80;;
19482;SDS011;9882;51.166;6.992;2023-02-13T12:04:49;12.68;;;5.00;;
19482;SDS011;9882;51.166;6.992;2023-02-13T12:07:21;16.60;;;5.53;;
19482;SDS011;9882;51.166;6.992;2023-02-13T12:09:57;23.38;;;5.63;;
19482;SDS011;9882;51.166;6.992;2023-02-13T12:12:32;14.02;;;5.30;;
19482;SDS011;9882;51.166;6.992;2023-02-13T12:15:09;12.45;;;5.43;;
19482;SDS011;9882;51.166;6.992;2023-02-13T12:17:45;15.05;;;5.50;;
19482;SDS011;9882;51.166;6.992;2023-02-13T12:20:17;13.88;;;5.15;;
19482;SDS011;9882;51.166;6.992;2023-02-13T12:22:51;14.15;;;4.82;;
19482;SDS011;9882;51.166;6.992;2023-02-13T12:28:27;18.42;;;4.57;;
19482;SDS011;9882;51.166;6.992;2023-02-13T12:31:09;13.00;;;4.97;;
19482;SDS011;9882;51.166;6.992;2023-02-13T12:37:22;15.57;;;5.15;;
19482;SDS011;9882;51.166;6.992;2023-02-13T12:40:05;15.40;;;4.95;;
19482;SDS011;9882;51.166;6.992;2023-02-13T12:42:52;14.55;;;5.03;;
19482;SDS011;9882;51.166;6.992;2023-02-13T12:45:40;8.18;;;3.50;;
19482;SDS011;9882;51.166;6.992;2023-02-13T12:48:18;15.30;;;4.35;;
19482;SDS011;9882;51.166;6.992;2023-02-13T12:51:01;9.38;;;3.75;;
19482;SDS011;9882;51.166;6.992;2023-02-13T12:53:51;12.70;;;4.65;;
19482;SDS011;9882;51.166;6.992;2023-02-13T12:56:42;12.07;;;4.32;;
19482;SDS011;9882;51.166;6.992;2023-02-13T12:59:37;9.77;;;3.80;;
19482;SDS011;9882;51.166;6.992;2023-02-13T13:05:16;9.68;;;3.90;;
19482;SDS011;9882;51.166;6.992;2023-02-13T13:08:09;12.43;;;4.65;;
19482;SDS011;9882;51.166;6.992;2023-02-13T13:10:56;10.63;;;3.88;;
19482;SDS011;9882;51.166;6.992;2023-02-13T13:13:37;13.68;;;4.80;;
19482;SDS011;9882;51.166;6.992;2023-02-13T13:16:16;8.52;;;3.63;;
19482;SDS011;9882;51.166;6.992;2023-02-13T13:18:55;10.98;;;4.20;;
19482;SDS011;9882;51.166;6.992;2023-02-13T13:21:34;13.55;;;3.60;;
19482;SDS011;9882;51.166;6.992;2023-02-13T13:24:10;8.02;;;3.47;;
19482;SDS011;9882;51.166;6.992;2023-02-13T13:26:49;9.00;;;3.80;;
19482;SDS011;9882;51.166;6.992;2023-02-13T13:29:20;8.52;;;3.40;;
19482;SDS011;9882;51.166;6.992;2023-02-13T13:31:52;7.53;;;3.50;;
19482;SDS011;9882;51.166;6.992;2023-02-13T13:34:24;8.07;;;3.70;;
19482;SDS011;9882;51.166;6.992;2023-02-13T13:36:55;8.82;;;3.65;;
19482;SDS011;9882;51.166;6.992;2023-02-13T13:39:32;12.85;;;3.58;;
19482;SDS011;9882;51.166;6.992;2023-02-13T13:42:12;11.35;;;3.92;;
19482;SDS011;9882;51.166;6.992;2023-02-13T13:44:50;9.75;;;3.65;;
19482;SDS011;9882;51.166;6.992;2023-02-13T13:47:32;10.30;;;3.90;;
19482;SDS011;9882;51.166;6.992;2023-02-13T13:50:16;7.82;;;3.33;;
19482;SDS011;9882;51.166;6.992;2023-02-13T13:53:04;10.45;;;3.60;;
19482;SDS011;9882;51.166;6.992;2023-02-13T13:58:43;8.35;;;4.00;;
19482;SDS011;9882;51.166;6.992;2023-02-13T14:01:17;7.45;;;3.30;;
19482;SDS011;9882;51.166;6.992;2023-02-13T14:03:53;12.40;;;3.63;;
19482;SDS011;9882;51.166;6.992;2023-02-13T14:06:23;9.02;;;3.42;;
19482;SDS011;9882;51.166;6.992;2023-02-13T14:08:54;9.95;;;3.50;;
19482;SDS011;9882;51.166;6.992;2023-02-13T14:11:40;10.38;;;3.85;;
19482;SDS011;9882;51.166;6.992;2023-02-13T14:17:17;8.80;;;3.85;;
19482;SDS011;9882;51.166;6.992;2023-02-13T14:20:19;5.90;;;3.38;;
19482;SDS011;9882;51.166;6.992;2023-02-13T14:23:04;5.60;;;3.22;;
19482;SDS011;9882;51.166;6.992;2023-02-13T14:25:48;5.28;;;3.13;;
19482;SDS011;9882;51.166;6.992;2023-02-13T14:28:19;8.85;;;3.72;;
19482;SDS011;9882;51.166;6.992;2023-02-13T14:30:52;9.43;;;3.88;;
19482;SDS011;9882;51.166;6.992;2023-02-13T14:33:33;9.45;;;3.60;;
19482;SDS011;9882;51.166;6.992;2023-02-13T14:36:03;7.35;;;3.35;;
19482;SDS011;9882;51.166;6.992;2023-02-13T14:38:35;6.30;;;3.10;;
19482;SDS011;9882;51.166;6.992;2023-02-13T14:41:04;8.40;;;3.42;;
19482;SDS011;9882;51.166;6.992;2023-02-13T14:43:37;5.05;;;3.05;;
19482;SDS011;9882;51.166;6.992;2023-02-13T14:49:02;8.10;;;2.60;;
19482;SDS011;9882;51.166;6.992;2023-02-13T14:51:35;5.85;;;2.50;;
19482;SDS011;9882;51.166;6.992;2023-02-13T14:54:08;6.25;;;3.05;;
19482;SDS011;9882;51.166;6.992;2023-02-13T14:56:48;7.25;;;3.00;;
19482;SDS011;9882;51.166;6.992;2023-02-13T14:59:18;7.07;;;2.80;;
19482;SDS011;9882;51.166;6.992;2023-02-13T15:01:52;6.78;;;2.88;;
19482;SDS011;9882;51.166;6.992;2023-02-13T15:04:27;5.18;;;2.70;;
19482;SDS011;9882;51.166;6.992;2023-02-13T15:07:02;7.05;;;2.85;;
19482;SDS011;9882;51.166;6.992;2023-02-13T15:09:34;10.32;;;2.70;;
19482;SDS011;9882;51.166;6.992;2023-02-13T15:14:53;5.55;;;2.78;;
19482;SDS011;9882;51.166;6.992;2023-02-13T15:17:24;7.93;;;3.10;;
19482;SDS011;9882;51.166;6.992;2023-02-13T15:19:57;10.90;;;3.05;;
19482;SDS011;9882;51.166;6.992;2023-02-13T15:22:31;6.15;;;2.88;;
19482;SDS011;9882;51.166;6.992;2023-02-13T15:25:02;5.57;;;2.63;;
19482;SDS011;9882;51.166;6.992;2023-02-13T15:27:31;4.50;;;2.40;;
19482;SDS011;9882;51.166;6.992;2023-02-13T15:30:17;8.52;;;3.17;;
19482;SDS011;9882;51.166;6.992;2023-02-13T15:32:54;6.45;;;2.85;;
19482;SDS011;9882;51.166;6.992;2023-02-13T15:35:25;7.38;;;3.00;;
19482;SDS011;9882;51.166;6.992;2023-02-13T15:37:57;5.70;;;2.60;;
19482;SDS011;9882;51.166;6.992;2023-02-13T15:40:27;9.02;;;2.72;;
19482;SDS011;9882;51.166;6.992;2023-02-13T15:42:58;5.22;;;2.72;;
19482;SDS011;9882;51.166;6.992;2023-02-13T15:45:28;4.13;;;2.60;;
19482;SDS011;9882;51.166;6.992;2023-02-13T15:47:59;5.38;;;2.20;;
19482;SDS011;9882;51.166;6.992;2023-02-13T15:50:28;6.20;;;2.78;;
19482;SDS011;9882;51.166;6.992;2023-02-13T15:52:58;7.68;;;3.40;;
19482;SDS011;9882;51.166;6.992;2023-02-13T15:55:30;6.70;;;2.80;;
19482;SDS011;9882;51.166;6.992;2023-02-13T15:58:02;6.32;;;2.90;;
19482;SDS011;9882;51.166;6.992;2023-02-13T16:00:32;5.93;;;2.50;;
19482;SDS011;9882;51.166;6.992;2023-02-13T16:03:05;2.80;;;2.28;;
19482;SDS011;9882;51.166;6.992;2023-02-13T16:05:40;4.65;;;2.45;;